METAR AND TAF INFORMATION
METAR FOR LFBT
ADDS - METARS form results

(1435 UTC 17 August 2019)
Data provider http://aviationweather.gov/metar/data/
 
METAR text: LFBT 171430Z AUTO 05004KT 310V100 CAVOK 28/17 Q1015 NOSIG
Conditions at: LFBT (TARBES/OSSUN , FR) observed 1430 UTC 17 August 2019
Temperature: 28.0°C (82°F)
Dewpoint: 17.0°C (63°F) [RH = 51%]
Pressure (altimeter): 29.97 inches Hg (1015.0 mb)
Winds: from the NE (50 degrees) at 5 MPH (4 knots; 2.1 m/s)
Visibility: 6 or more miles (10+ km)
Ceiling: ceiling and visibility are OK
Clouds: unknown
Weather: no significant weather observed at this time

METAR text: LFBT 171400Z AUTO VRB05KT CAVOK 28/17 Q1016 NOSIG
Conditions at: LFBT (TARBES/OSSUN , FR) observed 1400 UTC 17 August 2019
Temperature: 28.0°C (82°F)
Dewpoint: 17.0°C (63°F) [RH = 51%]
Pressure (altimeter): 30.00 inches Hg (1016.0 mb)
Winds: variable direction winds at 6 MPH (5 knots; 2.6 m/s)
Visibility: 6 or more miles (10+ km)
Ceiling: ceiling and visibility are OK
Clouds: unknown
Weather: no significant weather observed at this time

Forecast for: LFBT (TARBES/OSSUN , FR)
Text: TAF LFBT 171100Z 1712/1812 06005KT CAVOK
Forecast period: 1200 UTC 17 August 2019 to 0200 UTC 18 August 2019
Forecast type: FROM: standard forecast or significant change
Winds: from the ENE (60 degrees) at 6 MPH (5 knots; 2.6 m/s)
Visibility: 6 or more miles 10+ km)
Ceiling: unknown
Clouds: missing
Weather: NSW  (no significant weather)
Text: BECMG 1802/1804 27010KT
Forecast period: 0200 to 0800 UTC 18 August 2019
Forecast type: BECOMING: Conditions expected to become as follows by 0400 UTC 18 August 2019
Winds: from the W (270 degrees) at 12 MPH (10 knots; 5.1 m/s)
Visibility: 6 or more miles 10+ km)
Ceiling: unknown
Clouds: missing
Weather: NSW  (no significant weather)
Text: BECMG 1808/1810 03010KT BKN030
Forecast period: 0800 to 1200 UTC 18 August 2019
Forecast type: BECOMING: Conditions expected to become as follows by 1000 UTC 18 August 2019
Winds: from the NNE (30 degrees) at 12 MPH (10 knots; 5.1 m/s)
Visibility: 6 or more miles 10+ km)
Ceiling: 3000 feet AGL
Clouds: broken clouds at 3000 feet AGL
Weather: NSW  (no significant weather)

 AIRPORT MAP

 RUNWAY INFORMATION
Runway 02 Runway length 9843 ft Runway width 148 ft
Runway elevation 1238 ft Runway displaced threshold 2199 ft Runway heading 20
Runway 20 Runway length 9843 ft Runway width 148 ft
Runway elevation 1170 ft Runway displaced threshold 0 ft Runway heading 200

 AIRPORT FREQUENCIES
Type APP Name APP Frequency 120.3 MHZ
Type APP Name PYRENEES A Frequency 121.175 MHZ
Type ATIS Name ATIS Frequency 125.95 MHZ
Type GND Name GND Frequency 121.8 MHZ
Type TWR Name TWR Frequency 119.05 MHZ

 AIRPORT NEAR NAVIGATION AIDS
Type VOR Name Lahitte Frequency 111800 KHZ
Type VOR Name Tarbes Frequency 113900 KHZ
Type NDB Name Tarbes Frequency 321 KHZ



Powered by Virtual Airlines Manager [v2.6.2]